Flight Track Log - Related Links

Times and Time Zones

All times are in EDT time to prevent confusion due to time zone crossing. See the JST953 flight status page for this flight to view local times or setup timezone preferences in your user account.

Time Position Orientation Groundspeed Altitude Reporting Facility
EDT Latitude Longitude Course Direction KTS MPH feet Rate Location/Type
Sat 04:53:32 PM -16.8860 145.7810 39° Northeast 147 169 2,600  Level FlightAware ADS-B
Sat 04:53:33 PM -16.8820 145.7837 46° Northeast 155 178 2,900 2,000 Climbing Aus ATC (RADAR)
Sat 04:53:47 PM -16.8780 145.7880 40° Northeast 144 166 3,100 1,077 Climbing FlightAware ADS-B
Sat 04:54:12 PM -16.8620 145.8000 36° Northeast 184 212 3,600 1,333 Climbing FlightAware ADS-B
Sat 04:54:32 PM -16.8448 145.8168 36° Northeast 190 219 4,100 800 Climbing Aus ATC (RADAR)
Sat 04:54:42 PM -16.8440 145.8220 36° Northeast 220 253 4,000 400 Descending FlightAware ADS-B
Sat 04:54:47 PM -16.8430 145.8280 80° East 225 259 4,200 2,400 Climbing FlightAware ADS-B
Sat 04:55:12 PM -16.8550 145.8530 117° Southeast 251 289 5,200 2,640 Climbing FlightAware ADS-B
Sat 04:55:37 PM -16.8800 145.8700 147° Southeast 268 308 6,400 2,836 Climbing FlightAware ADS-B
Sat 04:56:07 PM -16.9120 145.8900 149° Southeast 279 321 7,800 3,200 Climbing FlightAware ADS-B
Sat 04:56:22 PM -16.9300 145.9010 150° Southeast 279 321 8,800 3,771 Climbing FlightAware ADS-B
Sat 04:56:42 PM -16.9605 145.9193 150° Southeast 285 328 10,000 2,640 Climbing Aus ATC (RADAR)
Sat 04:56:47 PM -16.9590 145.9190 150° Southeast 297 342 9,900 1,200 Descending FlightAware ADS-B
Sat 04:57:32 PM -17.0180 145.9550 150° Southeast 345 397 11,000 2,000 Climbing FlightAware ADS-B
Sat 04:57:47 PM -17.0470 145.9739 150° Southeast 351 404 11,900 2,400 Climbing Aus ATC (RADAR)
Sat 04:58:12 PM -17.0740 145.9910 150° Southeast 361 415 12,600 2,492 Climbing FlightAware ADS-B
Sat 04:58:52 PM -17.1330 146.0270 150° Southeast 359 413 14,600 2,400 Climbing FlightAware ADS-B
Sat 04:59:37 PM -17.1980 146.0680 149° Southeast 375 432 16,000 2,229 Climbing FlightAware ADS-B
Sat 05:00:02 PM -17.2446 146.0977 149° Southeast 372 428 17,200 2,250 Climbing Aus ATC (RADAR)
Sat 05:00:17 PM -17.2590 146.1040 149° Southeast 370 426 17,500 1,855 Climbing FlightAware ADS-B
Sat 05:00:57 PM -17.3240 146.1310 158° South 382 440 18,900 2,175 Climbing FlightAware ADS-B
Sat 05:01:37 PM -17.4016 146.1634 158° South 382 440 20,400 1,867 Climbing Aus ATC (RADAR)
Sat 05:01:42 PM -17.4010 146.1630 158° South 383 441 20,300 2,400 Descending FlightAware ADS-B
Sat 05:02:12 PM -17.4605 146.1879 158° South 386 444 21,800 2,400 Climbing Aus ATC (RADAR)
Sat 05:02:22 PM -17.4680 146.1920 158° South 385 443 21,900 1,543 Climbing FlightAware ADS-B
Sat 05:02:47 PM -17.5189 146.2126 158° South 388 447 22,700 1,600 Climbing Aus ATC (RADAR)
Sat 05:03:07 PM -17.5440 146.2230 158° South 395 455 23,100 1,543 Climbing FlightAware ADS-B
Sat 05:03:22 PM -17.5788 146.2376 158° South 393 452 23,600 1,050 Climbing Aus ATC (RADAR)
Sat 05:03:47 PM -17.6120 146.2520 158° South 402 463 23,800 1,108 Climbing FlightAware ADS-B
Sat 05:04:27 PM -17.6840 146.2820 158° South 416 479 24,800 2,000 Climbing FlightAware ADS-B
Sat 05:04:32 PM -17.7032 146.2899 158° South 415 478 25,300 2,294 Climbing Aus ATC (RADAR)
Sat 05:05:01 PM -17.7557 146.3120 158° South 406 467 26,100 1,050 Climbing Aus ATC (RADAR)
Sat 05:05:12 PM -17.7620 146.3150 158° South 414 476 26,000 588 Descending FlightAware ADS-B
Sat 05:05:52 PM -17.8380 146.3470 158° South 419 482 26,600 1,139 Climbing FlightAware ADS-B
Sat 05:06:31 PM -17.9206 146.3815 158° South 430 495 27,500 1,050 Climbing Aus ATC (RADAR)
Sat 05:06:32 PM -17.9110 146.3770 158° South 434 499 27,300 1,000 Descending FlightAware ADS-B
Sat 05:07:01 PM -17.9768 146.4057 158° South 433 498 28,000 933 Climbing Aus ATC (RADAR)
Sat 05:07:17 PM -17.9940 146.4130 158° South 435 501 28,000 1,050 Level FlightAware ADS-B
Sat 05:07:41 PM -18.0536 146.4379 158° South 443 510 28,700 1,050 Climbing Aus ATC (RADAR)
Sat 05:07:57 PM -18.0690 146.4440 158° South 448 516 28,700 689 Level FlightAware ADS-B
Sat 05:08:42 PM -18.1660 146.4850 158° South 458 527 29,400 1,143 Climbing FlightAware ADS-B
Sat 05:09:21 PM -18.2495 146.5211 158° South 458 527 30,300 1,050 Climbing Aus ATC (RADAR)
Sat 05:09:22 PM -18.2450 146.5180 158° South 461 531 30,100 1,200 Descending FlightAware ADS-B
Sat 05:09:56 PM -18.3191 146.5506 158° South 462 532 31,000 1,200 Climbing Aus ATC (RADAR)
Sat 05:10:07 PM -18.3360 146.5570 158° South 463 533 31,000 1,059 Level FlightAware ADS-B
Sat 05:10:47 PM -18.4170 146.5920 158° South 461 531 31,900 1,500 Climbing FlightAware ADS-B
Sat 05:10:51 PM -18.4285 146.5972 158° South 461 531 32,100 1,263 Climbing Aus ATC (RADAR)
Sat 05:11:06 PM -18.4585 146.6099 158° South 461 531 32,300 667 Climbing Aus ATC (RADAR)
Sat 05:11:27 PM -18.4960 146.6250 158° South 466 536 32,500 1,000 Climbing FlightAware ADS-B
Sat 05:12:12 PM -18.5840 146.6620 158° South 461 531 33,400 1,357 Climbing FlightAware ADS-B
Sat 05:12:51 PM -18.6670 146.6987 158° South 460 529 34,400 1,200 Climbing Aus ATC (RADAR)
Sat 05:12:52 PM -18.6640 146.6960 158° South 459 528 34,200 800 Descending FlightAware ADS-B
Sat 05:13:21 PM -18.7265 146.7240 158° South 463 533 34,800 933 Climbing Aus ATC (RADAR)
Sat 05:13:37 PM -18.7550 146.7350 158° South 462 532 34,900 857 Climbing FlightAware ADS-B
Sat 05:13:56 PM -18.7959 146.7534 158° South 464 534 35,300 750 Climbing Aus ATC (RADAR)
Sat 05:14:17 PM -18.8350 146.7690 158° South 466 536 35,400 885 Climbing FlightAware ADS-B
Sat 05:14:57 PM -18.9150 146.8030 158° South 464 534 36,200 1,059 Climbing FlightAware ADS-B
Sat 05:15:42 PM -18.9990 146.8390 158° South 462 532 36,900 565 Climbing FlightAware ADS-B
Sat 05:16:22 PM -19.0780 146.8730 158° South 453 521 37,000 154 Climbing FlightAware ADS-B
Sat 05:17:00 PM -19.1620 146.9101 158° South 451 519 37,100  Climbing Aus ATC (RADAR)
Sat 05:17:07 PM -19.1680 146.9120 158° South 455 524 37,000  Descending FlightAware ADS-B
Sat 05:17:30 PM -19.2207 146.9354 158° South 450 518 37,100  Climbing Aus ATC (RADAR)
Sat 05:17:47 PM -19.2490 146.9460 158° South 455 524 37,000  Descending FlightAware ADS-B
Sat 05:18:10 PM -19.2986 146.9689 158° South 448 516 37,100  Climbing Aus ATC (RADAR)
Sat 05:18:27 PM -19.3220 146.9780 158° South 455 524 37,000 -97 Descending FlightAware ADS-B
Sat 05:19:12 PM -19.4140 147.0170 158° South 455 524 37,000  Level FlightAware ADS-B
Sat 05:19:52 PM -19.4920 147.0510 158° South 455 524 37,000  Level FlightAware ADS-B
Sat 05:20:37 PM -19.5750 147.0860 158° South 455 524 37,000 72 Level FlightAware ADS-B
Sat 05:21:15 PM -19.6599 147.1239 158° South 448 516 37,100  Climbing Aus ATC (RADAR)
Sat 05:21:17 PM -19.6590 147.1220 158° South 454 522 37,000  Descending FlightAware ADS-B
Sat 05:21:35 PM -19.6992 147.1402 158° South 452 520 37,100  Climbing Aus ATC (RADAR)
Sat 05:21:57 PM -19.7380 147.1560 158° South 454 522 37,000 -90 Descending FlightAware ADS-B
Sat 05:22:42 PM -19.8250 147.1920 159° South 452 520 37,000 73 Level FlightAware ADS-B
Sat 05:23:19 PM -19.9074 147.2152 159° South 447 514 37,100  Climbing Aus ATC (RADAR)
Sat 05:23:22 PM -19.9050 147.2150 159° South 450 518 37,000  Descending FlightAware ADS-B
Sat 05:23:49 PM -19.9666 147.2323 159° South 442 509 37,100  Climbing Aus ATC (RADAR)
Sat 05:24:07 PM -19.9950 147.2390 159° South 451 519 37,000  Descending FlightAware ADS-B
Sat 05:24:24 PM -20.0388 147.2505 159° South 443 510 37,100  Climbing Aus ATC (RADAR)
Sat 05:24:47 PM -20.0770 147.2610 159° South 450 518 37,000 -95 Descending FlightAware ADS-B
Sat 05:25:27 PM -20.1590 147.2830 166° South 451 519 37,000  Level FlightAware ADS-B
Sat 05:26:07 PM -20.2380 147.3050 166° South 451 519 37,000 143 Level FlightAware ADS-B
Sat 05:26:09 PM -20.2507 147.3084 166° South 443 510 37,100 273 Climbing Aus ATC (RADAR)
Sat 05:26:29 PM -20.2911 147.3195 166° South 443 510 37,100 -140 Level Aus ATC (RADAR)
Sat 05:26:52 PM -20.3290 147.3300 166° South 450 518 37,000  Descending FlightAware ADS-B
Sat 05:26:54 PM -20.3422 147.3326 166° South 448 516 37,100 188 Climbing Aus ATC (RADAR)
Sat 05:27:24 PM -20.4026 147.3495 166° South 449 517 37,100 -158 Level Aus ATC (RADAR)
Sat 05:27:32 PM -20.4100 147.3520 166° South 450 518 37,000  Descending FlightAware ADS-B
Sat 05:28:09 PM -20.4929 147.3742 166° South 441 507 37,100  Climbing Aus ATC (RADAR)
Sat 05:28:17 PM -20.5010 147.3760 166° South 449 517 37,000 -125 Descending FlightAware ADS-B
Sat 05:28:57 PM -20.5820 147.3990 165° South 449 517 37,000  Level FlightAware ADS-B
Sat 05:29:42 PM -20.6730 147.4230 165° South 450 518 37,000 128 Level FlightAware ADS-B
Sat 05:29:44 PM -20.6847 147.4265 165° South 449 517 37,100 375 Climbing Aus ATC (RADAR)
Sat 05:30:14 PM -20.7450 147.4427 165° South 441 507 37,200 -158 Climbing Aus ATC (RADAR)
Sat 05:30:22 PM -20.7560 147.4460 165° South 450 518 37,000 -226 Descending FlightAware ADS-B
Sat 05:31:07 PM -20.8480 147.4710 166° South 450 518 37,000 156 Level FlightAware ADS-B
Sat 05:31:39 PM -20.9175 147.4898 166° South 453 521 37,200  Climbing Aus ATC (RADAR)
Sat 05:31:47 PM -20.9280 147.4930 166° South 450 518 37,000  Descending FlightAware ADS-B
Sat 05:32:14 PM -20.9871 147.5092 166° South 441 507 37,200  Climbing Aus ATC (RADAR)
Sat 05:32:22 PM -21.0000 147.5130 166° South 449 517 37,000  Descending FlightAware ADS-B
Sat 05:32:48 PM -21.0578 147.5286 166° South 444 511 37,200  Climbing Aus ATC (RADAR)
Sat 05:33:07 PM -21.0790 147.5350 166° South 448 516 37,000  Descending FlightAware ADS-B
Sat 05:33:23 PM -21.1281 147.5479 166° South 446 513 37,200  Climbing Aus ATC (RADAR)
Sat 05:33:57 PM -21.1640 147.5590 166° South 448 516 37,000  Descending FlightAware ADS-B
Sat 05:34:33 PM -21.2689 147.5867 166° South 443 510 37,200  Climbing Aus ATC (RADAR)
Sat 05:34:37 PM -21.2320 147.5790 166° South 448 516 37,000  Descending FlightAware ADS-B
Sat 05:35:03 PM -21.3297 147.6035 166° South 446 513 37,200  Climbing Aus ATC (RADAR)
Sat 05:35:17 PM -21.3000 147.5990 166° South 448 516 37,000 -222 Descending FlightAware ADS-B
Sat 05:35:57 PM -21.3680 147.6180 165° South 448 516 37,000 169 Level FlightAware ADS-B
Sat 05:36:28 PM -21.5014 147.6510 165° South 444 511 37,200  Climbing Aus ATC (RADAR)
Sat 05:36:37 PM -21.4360 147.6380 165° South 448 516 37,000  Descending FlightAware ADS-B
Sat 05:37:03 PM -21.5723 147.6707 165° South 446 513 37,200  Climbing Aus ATC (RADAR)
Sat 05:37:27 PM -21.5210 147.6620 165° South 448 516 37,000 -188 Descending FlightAware ADS-B
Sat 05:38:07 PM -21.5890 147.6820 165° South 448 516 37,000 158 Level FlightAware ADS-B
Sat 05:38:43 PM -21.7753 147.7268 165° South 446 513 37,200  Climbing Aus ATC (RADAR)
Sat 05:38:47 PM -21.6570 147.7010 165° South 448 516 37,000  Descending FlightAware ADS-B
Sat 05:39:18 PM -21.8460 147.7469 165° South 447 514 37,200  Climbing Aus ATC (RADAR)
Sat 05:39:27 PM -21.7250 147.7210 165° South 448 516 37,000  Descending FlightAware ADS-B
Sat 05:39:48 PM -21.9069 147.7635 165° South 451 519 37,200  Climbing Aus ATC (RADAR)
Sat 05:40:07 PM -21.7930 147.7410 165° South 448 516 37,000 -174 Descending FlightAware ADS-B
Sat 05:40:57 PM -21.9630 147.7790 168° South 450 518 37,000 169 Level FlightAware ADS-B
Sat 05:41:18 PM -22.0877 147.8147 168° South 446 513 37,200  Climbing Aus ATC (RADAR)
Sat 05:41:37 PM -22.0520 147.8030 168° South 448 516 37,000  Descending FlightAware ADS-B
Sat 05:41:53 PM -22.1579 147.8334 168° South 445 512 37,200 261 Climbing Aus ATC (RADAR)
Sat 05:42:23 PM -22.2185 147.8498 166° South 442 509 37,200 -353 Level Aus ATC (RADAR)
Sat 05:42:27 PM -22.1520 147.8310 166° South 449 517 37,000  Descending FlightAware ADS-B
Sat 05:43:02 PM -22.2991 147.8721 166° South 445 512 37,200  Climbing Aus ATC (RADAR)
Sat 05:43:17 PM -22.2350 147.8540 166° South 451 519 37,000  Descending FlightAware ADS-B
Sat 05:43:37 PM -22.3704 147.8925 166° South 450 518 37,200  Climbing Aus ATC (RADAR)
Sat 05:43:57 PM -22.3240 147.8790 166° South 453 521 37,000 -200 Descending FlightAware ADS-B
Sat 05:44:37 PM -22.4090 147.9020 166° South 455 524 37,000 150 Level FlightAware ADS-B
Sat 05:45:17 PM -22.5745 147.9497 166° South 455 524 37,200  Climbing Aus ATC (RADAR)
Sat 05:45:17 PM -22.4940 147.9260 166° South 455 524 37,000 -300 Descending FlightAware ADS-B
Sat 05:45:57 PM -22.5740 147.9490 165° South 455 524 37,000 200 Level FlightAware ADS-B
Sat 05:46:17 PM -22.6964 147.9838 165° South 451 519 37,200  Climbing Aus ATC (RADAR)
Sat 05:46:47 PM -22.6780 147.9780 165° South 453 521 37,000  Descending FlightAware ADS-B
Sat 05:47:22 PM -22.8278 148.0205 165° South 452 520 37,200  Climbing Aus ATC (RADAR)
Sat 05:47:27 PM -22.7590 148.0010 165° South 452 520 37,000  Descending FlightAware ADS-B
Sat 05:48:02 PM -22.9088 148.0436 165° South 453 521 37,200  Climbing Aus ATC (RADAR)
Sat 05:48:07 PM -22.8410 148.0240 165° South 452 520 37,000  Descending FlightAware ADS-B
Sat 05:48:37 PM -22.9797 148.0633 165° South 452 520 37,200  Climbing Aus ATC (RADAR)
Sat 05:48:52 PM -22.9420 148.0520 165° South 452 520 37,000  Descending FlightAware ADS-B
Sat 05:49:07 PM -23.0408 148.0803 165° South 453 521 37,200  Climbing Aus ATC (RADAR)
Sat 05:49:27 PM -23.0070 148.0700 165° South 452 520 37,000 -200 Descending FlightAware ADS-B
Sat 05:50:07 PM -23.0990 148.0960 165° South 452 520 37,000 273 Level FlightAware ADS-B
Sat 05:50:11 PM -23.1728 148.1177 165° South 453 521 37,200  Climbing Aus ATC (RADAR)
Sat 05:50:57 PM -23.1870 148.1210 165° South 452 520 37,000  Descending FlightAware ADS-B
Sat 05:51:16 PM -23.3039 148.1553 165° South 451 519 37,200 308 Climbing Aus ATC (RADAR)
Sat 05:51:36 PM -23.3444 148.1664 166° South 451 519 37,200 -571 Level Aus ATC (RADAR)
Sat 05:51:37 PM -23.2560 148.1410 166° South 452 520 37,000  Descending FlightAware ADS-B
Sat 05:51:56 PM -23.3849 148.1777 166° South 451 519 37,200  Climbing Aus ATC (RADAR)
Sat 05:52:37 PM -23.3790 148.1760 166° South 451 519 37,000  Descending FlightAware ADS-B
Sat 05:53:06 PM -23.5262 148.2178 166° South 450 518 37,200  Climbing Aus ATC (RADAR)
Sat 05:53:12 PM -23.4580 148.1980 166° South 450 518 37,000  Descending FlightAware ADS-B
Sat 05:53:31 PM -23.5766 148.2323 166° South 451 519 37,200  Climbing Aus ATC (RADAR)
Sat 05:53:52 PM -23.5410 148.2210 166° South 450 518 37,000 -169 Descending FlightAware ADS-B
Sat 05:54:42 PM -23.6440 148.2510 165° South 450 518 37,000 152 Level FlightAware ADS-B
Sat 05:55:11 PM -23.7788 148.2896 165° South 452 520 37,200  Climbing Aus ATC (RADAR)
Sat 05:55:12 PM -23.7120 148.2700 165° South 451 519 37,000  Descending FlightAware ADS-B
Sat 05:55:41 PM -23.8395 148.3069 165° South 450 518 37,200  Climbing Aus ATC (RADAR)
Sat 05:56:07 PM -23.8320 148.3050 165° South 453 521 37,000 -182 Descending FlightAware ADS-B
Sat 05:56:47 PM -23.8930 148.3220 166° South 454 522 37,000 162 Level FlightAware ADS-B
Sat 05:57:21 PM -24.0430 148.3654 166° South 455 524 37,200  Climbing Aus ATC (RADAR)
Sat 05:57:27 PM -23.9930 148.3510 166° South 453 521 37,000  Descending FlightAware ADS-B
Sat 05:57:51 PM -24.1036 148.3826 166° South 452 520 37,200  Climbing Aus ATC (RADAR)
Sat 05:58:02 PM -24.0560 148.3690 166° South 454 522 37,000  Descending FlightAware ADS-B
Sat 05:58:36 PM -24.1948 148.4090 166° South 452 520 37,200  Climbing Aus ATC (RADAR)
Sat 05:58:47 PM -24.1520 148.3960 166° South 453 521 37,000  Descending FlightAware ADS-B
Sat 05:59:11 PM -24.2658 148.4294 166° South 452 520 37,200  Climbing Aus ATC (RADAR)
Sat 05:59:37 PM -24.2500 148.4240 166° South 452 520 37,000  Descending FlightAware ADS-B
Sat 06:00:16 PM -24.3969 148.4671 166° South 448 516 37,200  Climbing Aus ATC (RADAR)
Sat 06:00:17 PM -24.3320 148.4480 166° South 451 519 37,000  Descending FlightAware ADS-B
Sat 06:00:50 PM -24.4676 148.4874 166° South 450 518 37,200  Climbing Aus ATC (RADAR)
Sat 06:00:57 PM -24.4340 148.4780 166° South 450 518 37,000 -255 Descending FlightAware ADS-B
Sat 06:01:37 PM -24.4990 148.4960 166° South 450 518 37,000 207 Level FlightAware ADS-B
Sat 06:01:55 PM -24.5987 148.5252 166° South 447 514 37,200  Climbing Aus ATC (RADAR)
Sat 06:02:17 PM -24.5790 148.5190 166° South 450 518 37,000  Descending FlightAware ADS-B
Sat 06:03:00 PM -24.7305 148.5634 166° South 451 519 37,200  Climbing Aus ATC (RADAR)
Sat 06:03:07 PM -24.6760 148.5470 166° South 451 519 37,000  Descending FlightAware ADS-B
Sat 06:03:40 PM -24.8115 148.5869 166° South 452 520 37,200  Climbing Aus ATC (RADAR)
Sat 06:03:47 PM -24.7500 148.5690 166° South 452 520 37,000  Descending FlightAware ADS-B
Sat 06:04:15 PM -24.8824 148.6076 166° South 451 519 37,200  Climbing Aus ATC (RADAR)
Sat 06:04:42 PM -24.8590 148.6010 166° South 453 521 37,000 -194 Descending FlightAware ADS-B
Sat 06:05:17 PM -24.9310 148.6210 166° South 453 521 37,000 154 Level FlightAware ADS-B
Sat 06:06:00 PM -25.0951 148.6698 166° South 451 519 37,200  Climbing Aus ATC (RADAR)
Sat 06:06:02 PM -25.0150 148.6460 166° South 453 521 37,000 -286 Descending FlightAware ADS-B
Sat 06:06:42 PM -25.0840 148.6670 165° South 453 521 37,000 207 Level FlightAware ADS-B
Sat 06:07:00 PM -25.2162 148.7048 165° South 448 516 37,200  Climbing Aus ATC (RADAR)
Sat 06:07:32 PM -25.1700 148.6920 165° South 453 521 37,000  Descending FlightAware ADS-B
Sat 06:08:05 PM -25.3463 148.7425 165° South 444 511 37,200  Climbing Aus ATC (RADAR)
Sat 06:08:12 PM -25.2390 148.7130 165° South 453 521 37,000  Descending FlightAware ADS-B
Sat 06:08:40 PM -25.4177 148.7637 165° South 449 517 37,200  Climbing Aus ATC (RADAR)
Sat 06:08:52 PM -25.3080 148.7330 165° South 453 521 37,000  Descending FlightAware ADS-B
Sat 06:09:15 PM -25.4875 148.7845 165° South 447 514 37,200  Climbing Aus ATC (RADAR)
Sat 06:09:32 PM -25.3770 148.7530 165° South 453 521 37,000  Descending FlightAware ADS-B
Sat 06:09:50 PM -25.5575 148.8054 165° South 446 513 37,200  Climbing Aus ATC (RADAR)
Sat 06:10:12 PM -25.4450 148.7740 165° South 453 521 37,000 -194 Descending FlightAware ADS-B
Sat 06:10:52 PM -25.5140 148.7940 165° South 453 521 37,000 255 Level FlightAware ADS-B
Sat 06:10:59 PM -25.6973 148.8465 165° South 446 513 37,200  Climbing Aus ATC (RADAR)
Sat 06:11:42 PM -25.6000 148.8200 165° South 453 521 37,000 -145 Descending FlightAware ADS-B
Sat 06:12:22 PM -25.6690 148.8400 165° South 453 521 37,000 156 Level FlightAware ADS-B
Sat 06:12:59 PM -25.9367 148.9165 165° South 447 514 37,200  Climbing Aus ATC (RADAR)
Sat 06:13:02 PM -25.7380 148.8610 165° South 453 521 37,000  Descending FlightAware ADS-B
Sat 06:13:39 PM -26.0165 148.9400 165° South 446 513 37,200  Climbing Aus ATC (RADAR)
Sat 06:13:42 PM -25.8070 148.8810 165° South 453 521 37,000  Descending FlightAware ADS-B
Sat 06:14:14 PM -26.0865 148.9606 165° South 445 512 37,200  Climbing Aus ATC (RADAR)
Sat 06:14:22 PM -25.8760 148.9020 165° South 453 521 37,000  Descending FlightAware ADS-B
Sat 06:14:44 PM -26.1463 148.9782 165° South 444 511 37,200  Climbing Aus ATC (RADAR)
Sat 06:15:12 PM -25.9620 148.9270 165° South 453 521 37,000  Descending FlightAware ADS-B
Sat 06:15:54 PM -26.2864 149.0201 165° South 447 514 37,200 94 Climbing Aus ATC (RADAR)
Sat 06:17:19 PM -26.4563 149.0710 165° South 444 511 37,200 50 Level Aus ATC (RADAR)
Sat 06:17:54 PM -26.5261 149.0925 165° South 443 510 37,300  Climbing Aus ATC (RADAR)
Sat 06:18:24 PM -26.5851 149.1131 163° South 444 511 37,200  Descending Aus ATC (RADAR)
Sat 06:19:04 PM -26.6648 149.1416 162° South 447 514 37,300 87 Climbing Aus ATC (RADAR)
Sat 06:19:33 PM -26.7242 149.1617 163° South 446 513 37,300  Level Aus ATC (RADAR)
Sat 06:20:09 PM -26.7934 149.1859 163° South 445 512 37,300  Level Aus ATC (RADAR)
Sat 06:20:38 PM -26.8531 149.2066 163° South 447 514 37,300  Level Aus ATC (RADAR)
Sat 06:21:08 PM -26.9127 149.2267 163° South 446 513 37,300  Level Aus ATC (RADAR)
Sat 06:22:23 PM -27.0627 149.2778 163° South 450 518 37,300 60 Level Aus ATC (RADAR)
Sat 06:22:48 PM -27.1124 149.2953 163° South 449 517 37,400 109 Climbing Aus ATC (RADAR)
Sat 06:23:18 PM -27.1729 149.3157 163° South 452 520 37,400 -86 Level Aus ATC (RADAR)
Sat 06:23:58 PM -27.2531 149.3437 163° South 453 521 37,300  Descending Aus ATC (RADAR)
Sat 06:24:28 PM -27.3138 149.3643 163° South 454 522 37,400 92 Climbing Aus ATC (RADAR)
Sat 06:25:03 PM -27.3836 149.3885 163° South 450 518 37,400  Level Aus ATC (RADAR)
Sat 06:25:43 PM -27.4646 149.4168 163° South 454 522 37,400 -86 Level Aus ATC (RADAR)
Sat 06:26:13 PM -27.5249 149.4377 163° South 453 521 37,300 -75 Descending Aus ATC (RADAR)
Sat 06:27:03 PM -27.6259 149.4730 163° South 454 522 37,300  Level Aus ATC (RADAR)
Sat 06:27:38 PM -27.6976 149.4976 163° South 458 527 37,300  Level Aus ATC (RADAR)
Sat 06:28:13 PM -27.7680 149.5230 162° South 456 525 37,300 86 Level Aus ATC (RADAR)
Sat 06:28:48 PM -27.8390 149.5476 163° South 456 525 37,400 87 Climbing Aus ATC (RADAR)
Sat 06:29:22 PM -27.9105 149.5726 163° South 459 528 37,400 -94 Level Aus ATC (RADAR)
Sat 06:29:52 PM -27.9712 149.5936 163° South 457 526 37,300 -86 Descending Aus ATC (RADAR)
Sat 06:30:32 PM -28.0523 149.6224 163° South 456 525 37,300  Level Aus ATC (RADAR)
Sat 06:31:08 PM -28.1231 149.6476 163° South 455 524 37,300  Level Aus ATC (RADAR)
Sat 06:32:12 PM -28.2540 149.6921 163° South 450 518 37,300 64 Level Aus ATC (RADAR)
Sat 06:32:42 PM -28.3120 149.7075 167° South 435 501 37,400  Climbing Aus ATC (RADAR)
Sat 06:33:17 PM -28.3757 149.7245 167° South 409 471 37,300 -80 Descending Aus ATC (RADAR)
Sat 06:33:57 PM -28.4468 149.7445 166° South 397 457 37,300 80 Level Aus ATC (RADAR)
Sat 06:34:32 PM -28.5092 149.7623 166° South 394 453 37,400 92 Climbing Aus ATC (RADAR)
Sat 06:35:02 PM -28.5637 149.7785 165° South 400 460 37,400  Level Aus ATC (RADAR)
Sat 06:35:32 PM -28.6186 149.7941 166° South 403 464 37,400  Level Aus ATC (RADAR)
Sat 06:36:07 PM -28.6822 149.8130 165° South 403 464 37,400  Level Aus ATC (RADAR)
Sat 06:37:12 PM -28.7999 149.8475 166° South 400 460 37,400  Level Aus ATC (RADAR)
Sat 06:37:47 PM -28.8632 149.8663 165° South 401 461 37,400  Level Aus ATC (RADAR)
Sat 06:38:22 PM -28.9265 149.8849 166° South 400 460 37,400  Level Aus ATC (RADAR)
Sat 06:38:56 PM -28.9896 149.9034 166° South 399 459 37,400  Level Aus ATC (RADAR)
Sat 06:39:31 PM -29.0527 149.9221 166° South 398 458 37,400  Level Aus ATC (RADAR)
Sat 06:40:02 PM -29.1064 149.9380 166° South 396 456 37,400  Level Aus ATC (RADAR)
Sat 06:40:41 PM -29.1780 149.9590 166° South 396 456 37,400 -81 Level Aus ATC (RADAR)
Sat 06:41:16 PM -29.2406 149.9775 166° South 396 456 37,300  Descending Aus ATC (RADAR)
Sat 06:42:16 PM -29.3480 150.0096 165° South 395 455 37,400 63 Climbing Aus ATC (RADAR)
Sat 06:42:51 PM -29.4107 150.0284 165° South 397 457 37,400  Level Aus ATC (RADAR)
Sat 06:43:26 PM -29.4733 150.0473 165° South 396 456 37,400  Level Aus ATC (RADAR)
Sat 06:44:06 PM -29.5450 150.0685 166° South 396 456 37,400  Level Aus ATC (RADAR)
Sat 06:44:36 PM -29.5979 150.0846 165° South 390 449 37,400  Level Aus ATC (RADAR)
Sat 06:45:11 PM -29.6604 150.1028 166° South 395 455 37,400  Level Aus ATC (RADAR)
Sat 06:45:46 PM -29.7227 150.1215 165° South 395 455 37,400  Level Aus ATC (RADAR)
Sat 06:46:21 PM -29.7841 150.1423 164° South 392 451 37,400  Level Aus ATC (RADAR)
Sat 06:47:35 PM -29.9179 150.1816 166° South 393 452 37,400  Level Aus ATC (RADAR)
Sat 06:47:55 PM -29.9535 150.1923 165° South 394 453 37,400  Level Aus ATC (RADAR)
Sat 06:48:30 PM -30.0159 150.2107 166° South 394 453 37,400  Level Aus ATC (RADAR)
Sat 06:49:15 PM -30.0955 150.2385 163° South 397 457 37,400  Level Aus ATC (RADAR)
Sat 06:49:35 PM -30.1289 150.2634 147° Southeast 407 468 37,400  Level Aus ATC (RADAR)
Sat 06:50:10 PM -30.1712 150.3364 124° Southeast 441 507 37,400  Level Aus ATC (RADAR)
Sat 06:50:45 PM -30.1796 150.4297 96° East 470 541 37,400  Level Aus ATC (RADAR)
Sat 06:51:20 PM -30.1500 150.5173 69° East 499 574 37,400  Level Aus ATC (RADAR)
Sat 06:52:25 PM -30.0390 150.6217 39° Northeast 474 545 37,400 -333 Level Aus ATC (RADAR)
Sat 06:52:32 PM -30.0410 150.6190 37° Northeast 471 542 37,000  Descending FlightAware ADS-B
Sat 06:52:45 PM -30.0044 150.6523 37° Northeast 472 543 37,400  Climbing Aus ATC (RADAR)
Sat 06:53:12 PM -29.9690 150.6830 38° Northeast 470 541 37,000 -358 Descending FlightAware ADS-B
Sat 06:53:52 PM -29.9020 150.7420 37° Northeast 468 539 37,000 265 Level FlightAware ADS-B
Sat 06:54:20 PM -29.8408 150.7962 37° Northeast 471 542 37,300  Climbing Aus ATC (RADAR)
Sat 06:54:37 PM -29.8240 150.8100 37° Northeast 468 539 37,000  Descending FlightAware ADS-B
Sat 06:54:55 PM -29.7806 150.8490 37° Northeast 469 540 37,300  Climbing Aus ATC (RADAR)
Sat 06:55:17 PM -29.7520 150.8730 37° Northeast 469 540 37,000 150 Descending FlightAware ADS-B
Sat 06:55:35 PM -29.7112 150.9090 37° Northeast 469 540 37,400  Climbing Aus ATC (RADAR)
Sat 06:55:57 PM -29.6860 150.9310 37° Northeast 470 541 37,000  Descending FlightAware ADS-B
Sat 06:56:00 PM -29.6678 150.9464 37° Northeast 470 541 37,400 727 Climbing Aus ATC (RADAR)
Sat 06:56:30 PM -29.6161 150.9919 37° Northeast 470 541 37,400 -571 Level Aus ATC (RADAR)
Sat 06:56:42 PM -29.6110 150.9950 37° Northeast 472 543 37,000 -462 Descending FlightAware ADS-B
Sat 06:57:22 PM -29.5400 151.0570 37° Northeast 474 545 37,000 381 Level FlightAware ADS-B
Sat 06:57:45 PM -29.4846 151.1062 37° Northeast 473 544 37,400  Climbing Aus ATC (RADAR)
Sat 06:58:07 PM -29.4570 151.1290 37° Northeast 475 547 37,000 -421 Descending FlightAware ADS-B
Sat 06:58:42 PM -29.3960 151.1820 37° Northeast 476 548 37,000 632 Level FlightAware ADS-B
Sat 06:58:45 PM -29.3791 151.1969 37° Northeast 475 547 37,400 558 Climbing Aus ATC (RADAR)
Sat 06:59:25 PM -29.3090 151.2576 37° Northeast 476 548 37,400 -511 Level Aus ATC (RADAR)
Sat 06:59:32 PM -29.3060 151.2590 37° Northeast 476 548 37,000  Descending FlightAware ADS-B
Sat 06:59:59 PM -29.2474 151.3106 37° Northeast 477 549 37,400  Climbing Aus ATC (RADAR)
Sat 07:00:12 PM -29.2360 151.3200 37° Northeast 477 549 37,000  Descending FlightAware ADS-B
Sat 07:00:34 PM -29.1861 151.3639 37° Northeast 476 548 37,400  Climbing Aus ATC (RADAR)
Sat 07:00:52 PM -29.1650 151.3810 37° Northeast 478 550 37,000  Descending FlightAware ADS-B
Sat 07:01:14 PM -29.1154 151.4244 37° Northeast 478 550 37,400  Climbing Aus ATC (RADAR)
Sat 07:01:37 PM -29.0860 151.4490 37° Northeast 479 551 37,000 -381 Descending FlightAware ADS-B
Sat 07:02:17 PM -29.0150 151.5090 36° Northeast 480 552 37,000 387 Level FlightAware ADS-B
Sat 07:02:39 PM -28.9641 151.5528 36° Northeast 483 556 37,400 571 Climbing Aus ATC (RADAR)
Sat 07:02:59 PM -28.9283 151.5838 37° Northeast 486 559 37,400 -1,043 Level Aus ATC (RADAR)
Sat 07:03:02 PM -28.9360 151.5770 37° Northeast 493 567 37,000  Descending FlightAware ADS-B
Sat 07:03:24 PM -28.8821 151.6232 37° Northeast 496 571 37,400  Climbing Aus ATC (RADAR)
Sat 07:03:42 PM -28.8600 151.6410 37° Northeast 512 589 37,000  Descending FlightAware ADS-B
Sat 07:03:59 PM -28.8151 151.6796 37° Northeast 514 592 37,400  Climbing Aus ATC (RADAR)
Sat 07:04:22 PM -28.7830 151.7070 37° Northeast 526 605 37,000 -1,500 Descending FlightAware ADS-B
Sat 07:05:07 PM -28.6940 151.7820 36° Northeast 525 604 35,700 -1,976 Descending FlightAware ADS-B
Sat 07:05:44 PM -28.6105 151.8531 36° Northeast 525 604 34,300 -2,550 Descending Aus ATC (RADAR)
Sat 07:05:47 PM -28.6170 151.8470 36° Northeast 528 608 34,000 -2,057 Descending FlightAware ADS-B
Sat 07:06:19 PM -28.5421 151.9108 36° Northeast 526 605 33,100 -1,867 Descending Aus ATC (RADAR)
Sat 07:06:32 PM -28.5290 151.9220 36° Northeast 515 593 32,600 -2,151 Descending FlightAware ADS-B
Sat 07:07:12 PM -28.4550 151.9840 36° Northeast 506 582 31,200 -1,917 Descending FlightAware ADS-B
Sat 07:07:44 PM -28.3820 152.0460 36° Northeast 503 579 30,300 -2,100 Descending Aus ATC (RADAR)
Sat 07:07:52 PM -28.3810 152.0470 36° Northeast 500 575 29,800 -1,886 Descending FlightAware ADS-B
Sat 07:08:19 PM -28.3179 152.0999 36° Northeast 491 565 29,200 -1,600 Descending Aus ATC (RADAR)
Sat 07:08:37 PM -28.3000 152.1150 36° Northeast 481 554 28,600 -1,714 Descending FlightAware ADS-B
Sat 07:08:54 PM -28.2557 152.1523 36° Northeast 476 548 28,200 -2,000 Descending Aus ATC (RADAR)
Sat 07:09:22 PM -28.2170 152.1850 36° Northeast 471 542 27,100 -2,206 Descending FlightAware ADS-B
Sat 07:10:02 PM -28.1420 152.2470 36° Northeast 459 528 25,700 -1,950 Descending FlightAware ADS-B
Sat 07:10:42 PM -28.0780 152.3010 37° Northeast 444 511 24,500 -2,047 Descending FlightAware ADS-B
Sat 07:11:27 PM -28.0010 152.3650 36° Northeast 436 502 22,800 -2,091 Descending FlightAware ADS-B
Sat 07:11:48 PM -27.9610 152.3985 36° Northeast 433 498 22,200 -1,950 Descending Aus ATC (RADAR)
Sat 07:12:07 PM -27.9370 152.4180 36° Northeast 426 490 21,500 -1,781 Descending FlightAware ADS-B
Sat 07:12:52 PM -27.8680 152.4760 37° Northeast 406 467 20,300 -1,037 Descending FlightAware ADS-B
Sat 07:13:28 PM -27.8100 152.5246 37° Northeast 388 447 20,100 -900 Descending Aus ATC (RADAR)
Sat 07:13:32 PM -27.8080 152.5260 37° Northeast 371 427 19,700 -1,371 Descending FlightAware ADS-B
Sat 07:14:03 PM -27.7641 152.5663 37° Northeast 367 422 19,300 -1,350 Descending Aus ATC (RADAR)
Sat 07:14:12 PM -27.7590 152.5730 37° Northeast 358 412 18,800 -1,543 Descending FlightAware ADS-B
Sat 07:14:38 PM -27.7257 152.6142 37° Northeast 354 407 18,400 -1,333 Descending Aus ATC (RADAR)
Sat 07:14:57 PM -27.7080 152.6350 37° Northeast 348 400 17,800 -1,200 Descending FlightAware ADS-B
Sat 07:15:13 PM -27.6872 152.6606 37° Northeast 347 399 17,700 -1,650 Descending Aus ATC (RADAR)
Sat 07:15:37 PM -27.6630 152.6890 37° Northeast 340 391 16,700 -1,667 Descending FlightAware ADS-B
Sat 07:16:07 PM -27.6390 152.7280 55° Northeast 324 373 16,200 -1,200 Descending FlightAware ADS-B
Sat 07:16:47 PM -27.6240 152.7950 76° East 311 358 15,300 -1,412 Descending FlightAware ADS-B
Sat 07:17:32 PM -27.6090 152.8640 76° East 302 348 14,200 -1,273 Descending FlightAware ADS-B
Sat 07:17:53 PM -27.6009 152.9003 76° East 296 341 13,900 -1,800 Descending Aus ATC (RADAR)
Sat 07:18:12 PM -27.5960 152.9240 76° East 303 349 13,000 -1,636 Descending FlightAware ADS-B
Sat 07:18:48 PM -27.5827 152.9843 76° East 292 336 12,400 -1,600 Descending Aus ATC (RADAR)
Sat 07:18:57 PM -27.5800 152.9940 76° East 297 342 11,800 -1,467 Descending FlightAware ADS-B
Sat 07:19:33 PM -27.5675 153.0518 76° East 290 334 11,300 -1,350 Descending Aus ATC (RADAR)
Sat 07:19:37 PM -27.5680 153.0520 76° East 291 335 10,900 -1,500 Descending FlightAware ADS-B
Sat 07:19:53 PM -27.5622 153.0800 76° East 278 320 10,800 -1,500 Descending Aus ATC (RADAR)
Sat 07:20:17 PM -27.5560 153.1080 76° East 285 328 9,900 -1,667 Descending FlightAware ADS-B
Sat 07:20:47 PM -27.5470 153.1490 76° East 279 321 9,300 -1,050 Descending FlightAware ADS-B
Sat 07:20:57 PM -27.5390 153.1610 53° Northeast 270 311 9,200 -720 Descending FlightAware ADS-B
Sat 07:21:12 PM -27.5250 153.1710 32° Northeast 275 316 9,000 -1,067 Descending FlightAware ADS-B
Sat 07:21:42 PM -27.4920 153.1930 31° Northeast 261 300 8,400 -1,200 Descending FlightAware ADS-B
Sat 07:22:07 PM -27.4660 153.2090 29° Northeast 257 296 7,900 -1,309 Descending FlightAware ADS-B
Sat 07:22:37 PM -27.4330 153.2310 31° Northeast 254 292 7,200 -1,300 Descending FlightAware ADS-B
Sat 07:23:07 PM -27.4020 153.2510 30° Northeast 247 284 6,600 -1,350 Descending FlightAware ADS-B
Sat 07:23:17 PM -27.3910 153.2590 33° Northeast 248 285 6,300 -1,029 Descending FlightAware ADS-B
Sat 07:23:42 PM -27.3637 153.2773 33° Northeast 249 287 6,000 -1,200 Descending Aus ATC (RADAR)
Sat 07:23:47 PM -27.3640 153.2760 33° Northeast 245 282 5,700 -900 Descending FlightAware ADS-B
Sat 07:24:02 PM -27.3470 153.2870 30° Northeast 232 267 5,700 171 Level FlightAware ADS-B
Sat 07:24:22 PM -27.3265 153.3012 30° Northeast 229 264 5,800 -720 Climbing Aus ATC (RADAR)
Sat 07:24:27 PM -27.3250 153.3010 30° Northeast 221 254 5,400 -720 Descending FlightAware ADS-B
Sat 07:24:47 PM -27.3048 153.3150 30° Northeast 218 251 5,500 -600 Climbing Aus ATC (RADAR)
Sat 07:24:57 PM -27.3000 153.3180 30° Northeast 207 238 5,100 -600 Descending FlightAware ADS-B
Sat 07:25:17 PM -27.2804 153.3307 30° Northeast 204 235 5,200 -800 Climbing Aus ATC (RADAR)
Sat 07:25:27 PM -27.2730 153.3330 30° Northeast 203 234 4,700 -2,400 Descending FlightAware ADS-B
Sat 07:25:32 PM -27.2690 153.3340 13° North 205 236 4,600 -343 Descending FlightAware ADS-B
Sat 07:26:02 PM -27.2408 153.3193 13° North 212 244 4,500 -800 Descending Aus ATC (RADAR)
Sat 07:26:02 PM -27.2430 153.3210 13° North 214 246 4,200 -1,500 Descending FlightAware ADS-B
Sat 07:26:22 PM -27.2280 153.3080 322° Northwest 215 247 4,000 -800 Descending FlightAware ADS-B
Sat 07:26:47 PM -27.2100 153.2880 315° West 219 252 3,600 -1,050 Descending FlightAware ADS-B
Sat 07:27:02 PM -27.2080 153.2710 278° West 216 249 3,300 -933 Descending FlightAware ADS-B
Sat 07:27:32 PM -27.2110 153.2360 264° West 210 242 2,900 -360 Descending FlightAware ADS-B
Sat 07:27:52 PM -27.2247 153.2193 264° West 210 242 3,000 -450 Climbing Aus ATC (RADAR)
Sat 07:28:12 PM -27.2350 153.2140 264° West 187 215 2,600 -960 Descending FlightAware ADS-B
Sat 07:28:42 PM -27.2580 153.2010 207° Southwest 186 214 2,200 -900 Descending FlightAware ADS-B
Sat 07:29:12 PM -27.2820 153.1880 206° Southwest 185 213 1,700 -720 Descending FlightAware ADS-B
Sat 07:29:32 PM -27.3007 153.1771 206° Southwest 181 208 1,600 -960 Descending Aus ATC (RADAR)
Sat 07:29:37 PM -27.3000 153.1770 206° Southwest 171 197 1,300 -600 Descending FlightAware ADS-B
Sat 07:29:52 PM -27.3142 153.1693 206° Southwest 170 196 1,400 -800 Climbing Aus ATC (RADAR)
Sat 07:30:07 PM -27.3200 153.1660 206° Southwest 146 168 900 -857 Descending FlightAware ADS-B
Sat 07:30:27 PM -27.3344 153.1577 206° Southwest 142 163 900 -720 Level Aus ATC (RADAR)
Sat 07:30:32 PM -27.3330 153.1580 206° Southwest 125 144 600 -1,500 Descending FlightAware ADS-B
Sat 07:30:47 PM -27.3410 153.1540 204° Southwest 120 138 400 -171 Descending FlightAware ADS-B
Sat 07:31:07 PM -27.3539 153.1469 204° Southwest 122 140 500 -600 Climbing Aus ATC (RADAR)
Sat 07:31:17 PM -27.3560 153.1450 204° Southwest 118 136 100 -2,400 Descending FlightAware ADS-B
Sat 07:31:32 PM -27.3630 153.1410 207° Southwest 119 137 -400 Descending FlightAware ADS-B
Sat 07:31:57 PM -27.3760 153.1340 206° Southwest 120 138  Level FlightAware ADS-B
Sat 07:32:27 PM -27.3870 153.1270 209° Southwest 58 67  Level FlightAware ADS-B
Sat 07:32:52 PM -27.3900 153.1240 222° Southwest 24 28  Level FlightAware ADS-B
Sat 07:33:22 PM -27.3910 153.1220 241° Southwest 11 13  Level FlightAware ADS-B

Login

Don't have an account? Register now (free) for customized features, flight alerts, and more!